sensor_id;sensor_type;location;lat;lon;timestamp;pressure;altitude;pressure_sealevel;temperature;humidity
75740;BME280;64357;51.344;6.550;2023-05-21T00:00:46;101265.03;;;13.57;86.63
75740;BME280;64357;51.344;6.550;2023-05-21T00:03:15;101266.56;;;13.55;86.45
75740;BME280;64357;51.344;6.550;2023-05-21T00:05:42;101258.41;;;13.50;86.88
75740;BME280;64357;51.344;6.550;2023-05-21T00:08:09;101252.22;;;13.48;87.41
75740;BME280;64357;51.344;6.550;2023-05-21T00:10:34;101256.13;;;13.53;86.78
75740;BME280;64357;51.344;6.550;2023-05-21T00:13:00;101252.06;;;13.55;86.84
75740;BME280;64357;51.344;6.550;2023-05-21T00:15:25;101256.91;;;13.52;86.99
75740;BME280;64357;51.344;6.550;2023-05-21T00:17:50;101248.75;;;13.48;87.53
75740;BME280;64357;51.344;6.550;2023-05-21T00:20:16;101238.06;;;13.43;87.59
75740;BME280;64357;51.344;6.550;2023-05-21T00:22:42;101241.56;;;13.35;87.69
75740;BME280;64357;51.344;6.550;2023-05-21T00:25:10;101251.38;;;13.39;87.69
75740;BME280;64357;51.344;6.550;2023-05-21T00:27:36;101243.94;;;13.42;88.30
75740;BME280;64357;51.344;6.550;2023-05-21T00:30:04;101240.53;;;13.33;88.36
75740;BME280;64357;51.344;6.550;2023-05-21T00:32:32;101235.22;;;13.40;88.00
75740;BME280;64357;51.344;6.550;2023-05-21T00:34:59;101236.41;;;13.44;88.08
75740;BME280;64357;51.344;6.550;2023-05-21T00:37:25;101238.81;;;13.42;88.26
75740;BME280;64357;51.344;6.550;2023-05-21T00:39:52;101239.75;;;13.43;88.23
75740;BME280;64357;51.344;6.550;2023-05-21T00:42:18;101234.00;;;13.37;88.65
75740;BME280;64357;51.344;6.550;2023-05-21T00:44:45;101236.56;;;13.37;88.04
75740;BME280;64357;51.344;6.550;2023-05-21T00:47:13;101233.88;;;13.35;88.99
75740;BME280;64357;51.344;6.550;2023-05-21T00:49:42;101226.16;;;13.35;88.18
75740;BME280;64357;51.344;6.550;2023-05-21T00:52:10;101229.63;;;13.36;88.29
75740;BME280;64357;51.344;6.550;2023-05-21T00:54:38;101226.81;;;13.32;88.61
75740;BME280;64357;51.344;6.550;2023-05-21T00:57:03;101220.47;;;13.29;88.51
75740;BME280;64357;51.344;6.550;2023-05-21T00:59:32;101228.72;;;13.35;88.86
75740;BME280;64357;51.344;6.550;2023-05-21T01:01:58;101226.81;;;13.32;88.70
75740;BME280;64357;51.344;6.550;2023-05-21T01:04:30;101229.38;;;13.32;88.67
75740;BME280;64357;51.344;6.550;2023-05-21T01:06:56;101231.03;;;13.32;88.49
75740;BME280;64357;51.344;6.550;2023-05-21T01:09:23;101235.41;;;13.33;88.72
75740;BME280;64357;51.344;6.550;2023-05-21T01:11:50;101223.66;;;13.26;89.18
75740;BME280;64357;51.344;6.550;2023-05-21T01:14:17;101227.13;;;13.27;88.89
75740;BME280;64357;51.344;6.550;2023-05-21T01:16:47;101214.13;;;13.17;89.27
75740;BME280;64357;51.344;6.550;2023-05-21T01:19:18;101223.97;;;13.21;89.39
75740;BME280;64357;51.344;6.550;2023-05-21T01:21:48;101215.66;;;13.23;89.31
75740;BME280;64357;51.344;6.550;2023-05-21T01:24:14;101215.66;;;13.15;89.86
75740;BME280;64357;51.344;6.550;2023-05-21T01:26:40;101211.13;;;13.12;90.09
75740;BME280;64357;51.344;6.550;2023-05-21T01:29:08;101207.06;;;13.14;90.40
75740;BME280;64357;51.344;6.550;2023-05-21T01:34:11;101211.75;;;13.01;91.61
75740;BME280;64357;51.344;6.550;2023-05-21T01:36:46;101206.06;;;12.95;91.78
75740;BME280;64357;51.344;6.550;2023-05-21T01:39:20;101207.56;;;12.93;92.19
75740;BME280;64357;51.344;6.550;2023-05-21T01:41:51;101204.56;;;12.88;91.98
75740;BME280;64357;51.344;6.550;2023-05-21T01:44:17;101210.16;;;12.93;92.32
75740;BME280;64357;51.344;6.550;2023-05-21T01:46:45;101194.16;;;12.87;92.27
75740;BME280;64357;51.344;6.550;2023-05-21T01:49:11;101197.63;;;12.87;92.21
75740;BME280;64357;51.344;6.550;2023-05-21T01:51:40;101198.84;;;12.91;92.31
75740;BME280;64357;51.344;6.550;2023-05-21T01:54:07;101198.97;;;12.92;92.27
75740;BME280;64357;51.344;6.550;2023-05-21T01:56:33;101195.22;;;12.89;92.15
75740;BME280;64357;51.344;6.550;2023-05-21T01:59:03;101198.22;;;12.93;92.31
75740;BME280;64357;51.344;6.550;2023-05-21T02:01:29;101198.22;;;12.93;92.17
75740;BME280;64357;51.344;6.550;2023-05-21T02:03:57;101196.69;;;12.95;92.25
75740;BME280;64357;51.344;6.550;2023-05-21T02:06:23;101197.31;;;12.93;91.98
75740;BME280;64357;51.344;6.550;2023-05-21T02:08:48;101188.28;;;12.88;92.43
75740;BME280;64357;51.344;6.550;2023-05-21T02:11:18;101195.22;;;12.89;92.62
75740;BME280;64357;51.344;6.550;2023-05-21T02:13:47;101195.06;;;12.87;92.68
75740;BME280;64357;51.344;6.550;2023-05-21T02:16:14;101186.03;;;12.91;92.19
75740;BME280;64357;51.344;6.550;2023-05-21T02:18:40;101190.84;;;12.88;92.48
75740;BME280;64357;51.344;6.550;2023-05-21T02:21:08;101192.66;;;12.89;92.67
75740;BME280;64357;51.344;6.550;2023-05-21T02:23:34;101194.00;;;12.94;92.20
75740;BME280;64357;51.344;6.550;2023-05-21T02:26:00;101190.53;;;12.93;92.38
75740;BME280;64357;51.344;6.550;2023-05-21T02:28:25;101195.06;;;12.96;91.81
75740;BME280;64357;51.344;6.550;2023-05-21T02:30:51;101193.41;;;12.96;92.37
75740;BME280;64357;51.344;6.550;2023-05-21T02:33:16;101185.53;;;12.95;91.84
75740;BME280;64357;51.344;6.550;2023-05-21T02:35:43;101198.94;;;13.01;91.85
75740;BME280;64357;51.344;6.550;2023-05-21T02:38:09;101186.16;;;12.92;92.43
75740;BME280;64357;51.344;6.550;2023-05-21T02:40:34;101186.16;;;12.84;92.70
75740;BME280;64357;51.344;6.550;2023-05-21T02:43:00;101183.59;;;12.92;92.37
75740;BME280;64357;51.344;6.550;2023-05-21T02:45:28;101182.25;;;12.87;92.34
75740;BME280;64357;51.344;6.550;2023-05-21T02:47:53;101190.09;;;12.89;92.44
75740;BME280;64357;51.344;6.550;2023-05-21T02:50:21;101188.59;;;12.82;92.58
75740;BME280;64357;51.344;6.550;2023-05-21T02:52:47;101176.41;;;12.79;93.07
75740;BME280;64357;51.344;6.550;2023-05-21T02:55:13;101189.81;;;12.86;92.50
75740;BME280;64357;51.344;6.550;2023-05-21T02:57:41;101187.84;;;12.83;92.97
75740;BME280;64357;51.344;6.550;2023-05-21T03:00:07;101170.66;;;12.82;92.84
75740;BME280;64357;51.344;6.550;2023-05-21T03:02:33;101169.31;;;12.77;93.38
75740;BME280;64357;51.344;6.550;2023-05-21T03:05:03;101164.94;;;12.76;93.59
75740;BME280;64357;51.344;6.550;2023-05-21T03:07:31;101175.19;;;12.76;93.74
75740;BME280;64357;51.344;6.550;2023-05-21T03:09:59;101166.47;;;12.74;93.46
75740;BME280;64357;51.344;6.550;2023-05-21T03:12:25;101160.44;;;12.73;93.75
75740;BME280;64357;51.344;6.550;2023-05-21T03:14:50;101165.13;;;12.69;94.00
75740;BME280;64357;51.344;6.550;2023-05-21T03:17:16;101173.56;;;12.68;93.79
75740;BME280;64357;51.344;6.550;2023-05-21T03:19:44;101170.41;;;12.62;94.40
75740;BME280;64357;51.344;6.550;2023-05-21T03:22:12;101159.41;;;12.63;94.17
75740;BME280;64357;51.344;6.550;2023-05-21T03:24:38;101161.34;;;12.65;94.21
75740;BME280;64357;51.344;6.550;2023-05-21T03:27:03;101150.81;;;12.53;94.64
75740;BME280;64357;51.344;6.550;2023-05-21T03:29:35;101153.25;;;12.61;94.53
75740;BME280;64357;51.344;6.550;2023-05-21T03:32:01;101152.16;;;12.59;94.88
75740;BME280;64357;51.344;6.550;2023-05-21T03:34:30;101150.81;;;12.62;94.60
75740;BME280;64357;51.344;6.550;2023-05-21T03:36:58;101149.00;;;12.52;95.17
75740;BME280;64357;51.344;6.550;2023-05-21T03:39:23;101152.63;;;12.54;95.25
75740;BME280;64357;51.344;6.550;2023-05-21T03:41:49;101157.31;;;12.50;95.31
75740;BME280;64357;51.344;6.550;2023-05-21T03:44:15;101156.44;;;12.49;95.14
75740;BME280;64357;51.344;6.550;2023-05-21T03:46:40;101158.69;;;12.55;95.43
75740;BME280;64357;51.344;6.550;2023-05-21T03:49:08;101158.06;;;12.58;95.30
75740;BME280;64357;51.344;6.550;2023-05-21T03:51:34;101154.13;;;12.52;95.11
75740;BME280;64357;51.344;6.550;2023-05-21T03:54:02;101155.53;;;12.49;95.57
75740;BME280;64357;51.344;6.550;2023-05-21T03:56:27;101165.28;;;12.53;95.60
75740;BME280;64357;51.344;6.550;2023-05-21T03:58:52;101170.72;;;12.56;95.40
75740;BME280;64357;51.344;6.550;2023-05-21T04:01:20;101165.16;;;12.51;95.39
75740;BME280;64357;51.344;6.550;2023-05-21T04:03:48;101157.78;;;12.46;95.89
75740;BME280;64357;51.344;6.550;2023-05-21T04:06:16;101164.84;;;12.48;95.33
75740;BME280;64357;51.344;6.550;2023-05-21T04:08:41;101162.91;;;12.46;96.01
75740;BME280;64357;51.344;6.550;2023-05-21T04:11:09;101169.25;;;12.49;96.35
75740;BME280;64357;51.344;6.550;2023-05-21T04:13:35;101176.44;;;12.53;95.99
75740;BME280;64357;51.344;6.550;2023-05-21T04:16:00;101168.63;;;12.52;96.09
75740;BME280;64357;51.344;6.550;2023-05-21T04:18:27;101158.97;;;12.49;96.19
75740;BME280;64357;51.344;6.550;2023-05-21T04:20:55;101169.38;;;12.51;96.37
75740;BME280;64357;51.344;6.550;2023-05-21T04:23:20;101169.97;;;12.57;95.56
75740;BME280;64357;51.344;6.550;2023-05-21T04:25:47;101179.31;;;12.57;95.56
75740;BME280;64357;51.344;6.550;2023-05-21T04:28:14;101171.00;;;12.59;95.87
75740;BME280;64357;51.344;6.550;2023-05-21T04:30:47;101164.06;;;12.58;95.43
75740;BME280;64357;51.344;6.550;2023-05-21T04:33:13;101171.59;;;12.65;95.56
75740;BME280;64357;51.344;6.550;2023-05-21T04:35:49;101171.59;;;12.65;95.38
75740;BME280;64357;51.344;6.550;2023-05-21T04:38:18;101163.00;;;12.65;95.26
75740;BME280;64357;51.344;6.550;2023-05-21T04:40:47;101177.94;;;12.69;94.99
75740;BME280;64357;51.344;6.550;2023-05-21T04:43:14;101165.72;;;12.66;95.17
75740;BME280;64357;51.344;6.550;2023-05-21T04:45:42;101177.91;;;12.77;95.42
75740;BME280;64357;51.344;6.550;2023-05-21T04:48:10;101184.28;;;12.72;94.98
75740;BME280;64357;51.344;6.550;2023-05-21T04:50:36;101175.63;;;12.80;95.02
75740;BME280;64357;51.344;6.550;2023-05-21T04:53:03;101178.19;;;12.80;95.08
75740;BME280;64357;51.344;6.550;2023-05-21T04:55:30;101179.41;;;12.84;95.09
75740;BME280;64357;51.344;6.550;2023-05-21T04:58:00;101175.00;;;12.83;95.21
75740;BME280;64357;51.344;6.550;2023-05-21T05:00:25;101165.97;;;12.78;95.08
75740;BME280;64357;51.344;6.550;2023-05-21T05:02:54;101179.69;;;12.87;95.41
75740;BME280;64357;51.344;6.550;2023-05-21T05:05:19;101181.75;;;13.00;94.82
75740;BME280;64357;51.344;6.550;2023-05-21T05:07:44;101179.81;;;12.97;94.73
75740;BME280;64357;51.344;6.550;2023-05-21T05:10:12;101179.63;;;13.04;94.35
75740;BME280;64357;51.344;6.550;2023-05-21T05:12:37;101177.31;;;13.16;93.76
75740;BME280;64357;51.344;6.550;2023-05-21T05:15:03;101176.44;;;13.07;93.98
75740;BME280;64357;51.344;6.550;2023-05-21T05:17:31;101175.38;;;13.14;94.38
75740;BME280;64357;51.344;6.550;2023-05-21T05:19:59;101173.41;;;13.11;94.31
75740;BME280;64357;51.344;6.550;2023-05-21T05:22:24;101174.03;;;13.08;94.54
75740;BME280;64357;51.344;6.550;2023-05-21T05:24:50;101167.13;;;13.07;94.21
75740;BME280;64357;51.344;6.550;2023-05-21T05:27:18;101164.06;;;13.12;94.69
75740;BME280;64357;51.344;6.550;2023-05-21T05:29:44;101163.28;;;13.13;94.79
75740;BME280;64357;51.344;6.550;2023-05-21T05:32:12;101172.34;;;13.26;94.39
75740;BME280;64357;51.344;6.550;2023-05-21T05:34:37;101178.31;;;13.36;93.65
75740;BME280;64357;51.344;6.550;2023-05-21T05:37:03;101178.47;;;13.37;93.10
75740;BME280;64357;51.344;6.550;2023-05-21T05:39:29;101161.81;;;13.42;92.98
75740;BME280;64357;51.344;6.550;2023-05-21T05:41:54;101166.06;;;13.42;93.39
75740;BME280;64357;51.344;6.550;2023-05-21T05:44:19;101168.47;;;13.49;93.40
75740;BME280;64357;51.344;6.550;2023-05-21T05:46:47;101151.66;;;13.52;92.74
75740;BME280;64357;51.344;6.550;2023-05-21T05:49:12;101167.63;;;13.58;92.83
75740;BME280;64357;51.344;6.550;2023-05-21T05:51:40;101165.28;;;13.70;92.01
75740;BME280;64357;51.344;6.550;2023-05-21T05:54:06;101163.00;;;13.73;91.81
75740;BME280;64357;51.344;6.550;2023-05-21T05:56:31;101163.00;;;13.73;92.18
75740;BME280;64357;51.344;6.550;2023-05-21T05:58:57;101170.09;;;13.76;92.05
75740;BME280;64357;51.344;6.550;2023-05-21T06:01:23;101173.22;;;13.82;91.64
75740;BME280;64357;51.344;6.550;2023-05-21T06:03:51;101173.84;;;13.79;91.92
75740;BME280;64357;51.344;6.550;2023-05-21T06:06:19;101170.44;;;13.89;91.99
75740;BME280;64357;51.344;6.550;2023-05-21T06:08:44;101162.00;;;13.90;91.77
75740;BME280;64357;51.344;6.550;2023-05-21T06:11:10;101162.91;;;13.91;91.81
75740;BME280;64357;51.344;6.550;2023-05-21T06:13:38;101154.19;;;13.99;91.01
75740;BME280;64357;51.344;6.550;2023-05-21T06:16:06;101144.78;;;14.08;90.69
75740;BME280;64357;51.344;6.550;2023-05-21T06:18:34;101153.50;;;14.10;91.34
75740;BME280;64357;51.344;6.550;2023-05-21T06:20:59;101130.69;;;14.13;90.60
75740;BME280;64357;51.344;6.550;2023-05-21T06:23:27;101157.38;;;14.34;89.74
75740;BME280;64357;51.344;6.550;2023-05-21T06:25:52;101153.66;;;14.49;89.21
75740;BME280;64357;51.344;6.550;2023-05-21T06:28:17;101150.38;;;14.71;88.30
75740;BME280;64357;51.344;6.550;2023-05-21T06:30:45;101153.22;;;14.74;87.97
75740;BME280;64357;51.344;6.550;2023-05-21T06:33:11;101140.28;;;14.92;86.86
75740;BME280;64357;51.344;6.550;2023-05-21T06:35:36;101137.72;;;14.92;86.50
75740;BME280;64357;51.344;6.550;2023-05-21T06:38:07;101148.06;;;15.03;86.21
75740;BME280;64357;51.344;6.550;2023-05-21T06:40:33;101143.53;;;15.00;86.30
75740;BME280;64357;51.344;6.550;2023-05-21T06:42:59;101146.38;;;15.03;85.62
75740;BME280;64357;51.344;6.550;2023-05-21T06:45:28;101139.81;;;14.97;85.74
75740;BME280;64357;51.344;6.550;2023-05-21T06:47:59;101150.38;;;15.10;85.07
75740;BME280;64357;51.344;6.550;2023-05-21T06:50:27;101149.34;;;15.18;84.92
75740;BME280;64357;51.344;6.550;2023-05-21T06:52:55;101140.50;;;15.35;84.33
75740;BME280;64357;51.344;6.550;2023-05-21T06:55:20;101151.06;;;15.38;83.83
75740;BME280;64357;51.344;6.550;2023-05-21T06:57:46;101154.66;;;15.40;83.76
75740;BME280;64357;51.344;6.550;2023-05-21T07:00:17;101151.84;;;15.47;83.87
75740;BME280;64357;51.344;6.550;2023-05-21T07:02:43;101147.59;;;15.58;83.21
75740;BME280;64357;51.344;6.550;2023-05-21T07:05:11;101143.59;;;15.51;83.06
75740;BME280;64357;51.344;6.550;2023-05-21T07:07:37;101154.59;;;15.69;82.56
75740;BME280;64357;51.344;6.550;2023-05-21T07:10:05;101150.34;;;15.90;81.93
75740;BME280;64357;51.344;6.550;2023-05-21T07:12:31;101161.94;;;15.95;81.69
75740;BME280;64357;51.344;6.550;2023-05-21T07:14:59;101149.78;;;15.94;81.07
75740;BME280;64357;51.344;6.550;2023-05-21T07:17:24;101153.59;;;16.30;80.64
75740;BME280;64357;51.344;6.550;2023-05-21T07:19:50;101154.38;;;16.29;80.84
75740;BME280;64357;51.344;6.550;2023-05-21T07:22:15;101146.53;;;16.17;80.77
75740;BME280;64357;51.344;6.550;2023-05-21T07:24:41;101159.97;;;16.13;80.68
75740;BME280;64357;51.344;6.550;2023-05-21T07:27:11;101153.34;;;16.37;79.96
75740;BME280;64357;51.344;6.550;2023-05-21T07:29:38;101160.59;;;16.52;79.26
75740;BME280;64357;51.344;6.550;2023-05-21T07:32:04;101147.53;;;16.29;79.77
75740;BME280;64357;51.344;6.550;2023-05-21T07:34:29;101160.50;;;16.51;79.74
75740;BME280;64357;51.344;6.550;2023-05-21T07:36:55;101147.56;;;16.93;77.52
75740;BME280;64357;51.344;6.550;2023-05-21T07:39:23;101155.47;;;17.28;75.47
75740;BME280;64357;51.344;6.550;2023-05-21T07:41:53;101156.84;;;17.69;74.24
75740;BME280;64357;51.344;6.550;2023-05-21T07:44:18;101148.56;;;18.18;71.96
75740;BME280;64357;51.344;6.550;2023-05-21T07:46:44;101153.28;;;18.47;70.75
75740;BME280;64357;51.344;6.550;2023-05-21T07:49:09;101150.22;;;18.53;70.31
75740;BME280;64357;51.344;6.550;2023-05-21T07:51:41;101151.78;;;18.39;70.70
75740;BME280;64357;51.344;6.550;2023-05-21T07:54:09;101143.94;;;18.26;71.96
75740;BME280;64357;51.344;6.550;2023-05-21T07:56:35;101147.50;;;18.04;73.26
75740;BME280;64357;51.344;6.550;2023-05-21T07:59:00;101141.66;;;17.95;72.61
75740;BME280;64357;51.344;6.550;2023-05-21T08:01:28;101131.53;;;17.98;72.82
75740;BME280;64357;51.344;6.550;2023-05-21T08:03:54;101140.00;;;18.31;72.44
75740;BME280;64357;51.344;6.550;2023-05-21T08:06:20;101127.63;;;18.15;72.68
75740;BME280;64357;51.344;6.550;2023-05-21T08:08:46;101144.47;;;17.87;72.69
75740;BME280;64357;51.344;6.550;2023-05-21T08:11:12;101139.16;;;17.73;73.94
75740;BME280;64357;51.344;6.550;2023-05-21T08:13:37;101139.19;;;17.85;73.72
75740;BME280;64357;51.344;6.550;2023-05-21T08:16:03;101144.22;;;17.72;74.30
75740;BME280;64357;51.344;6.550;2023-05-21T08:18:33;101142.00;;;18.23;73.14
75740;BME280;64357;51.344;6.550;2023-05-21T08:20:58;101139.09;;;18.07;73.18
75740;BME280;64357;51.344;6.550;2023-05-21T08:23:24;101137.16;;;18.04;73.50
75740;BME280;64357;51.344;6.550;2023-05-21T08:25:51;101136.81;;;18.11;73.28
75740;BME280;64357;51.344;6.550;2023-05-21T08:28:20;101143.84;;;18.36;72.44
75740;BME280;64357;51.344;6.550;2023-05-21T08:30:45;101149.56;;;18.67;71.40
75740;BME280;64357;51.344;6.550;2023-05-21T08:33:11;101146.06;;;18.78;70.62
75740;BME280;64357;51.344;6.550;2023-05-21T08:35:36;101145.59;;;18.84;69.82
75740;BME280;64357;51.344;6.550;2023-05-21T08:38:04;101139.91;;;19.01;69.53
75740;BME280;64357;51.344;6.550;2023-05-21T08:40:33;101144.47;;;18.80;70.83
75740;BME280;64357;51.344;6.550;2023-05-21T08:43:00;101144.03;;;19.11;69.45
75740;BME280;64357;51.344;6.550;2023-05-21T08:45:35;101138.88;;;19.36;68.70
75740;BME280;64357;51.344;6.550;2023-05-21T08:48:01;101143.88;;;19.46;68.51
75740;BME280;64357;51.344;6.550;2023-05-21T08:50:30;101143.47;;;19.40;68.59
75740;BME280;64357;51.344;6.550;2023-05-21T08:53:00;101142.13;;;19.33;69.29
75740;BME280;64357;51.344;6.550;2023-05-21T08:55:26;101142.09;;;19.20;69.49
75740;BME280;64357;51.344;6.550;2023-05-21T08:57:53;101141.94;;;18.94;70.87
75740;BME280;64357;51.344;6.550;2023-05-21T09:00:21;101139.75;;;18.75;71.29
75740;BME280;64357;51.344;6.550;2023-05-21T09:02:52;101132.66;;;18.84;71.70
75740;BME280;64357;51.344;6.550;2023-05-21T09:05:18;101133.53;;;18.84;71.07
75740;BME280;64357;51.344;6.550;2023-05-21T09:08:23;101133.38;;;19.06;70.67
75740;BME280;64357;51.344;6.550;2023-05-21T09:10:51;101135.72;;;19.03;70.71
75740;BME280;64357;51.344;6.550;2023-05-21T09:13:18;101134.03;;;19.29;70.24
75740;BME280;64357;51.344;6.550;2023-05-21T09:15:44;101129.63;;;19.14;69.91
75740;BME280;64357;51.344;6.550;2023-05-21T09:18:13;101129.88;;;19.06;70.61
75740;BME280;64357;51.344;6.550;2023-05-21T09:20:38;101137.75;;;19.32;70.25
75740;BME280;64357;51.344;6.550;2023-05-21T09:23:05;101137.75;;;19.32;70.05
75740;BME280;64357;51.344;6.550;2023-05-21T09:25:36;101135.69;;;19.15;70.28
75740;BME280;64357;51.344;6.550;2023-05-21T09:28:10;101137.00;;;18.97;71.47
75740;BME280;64357;51.344;6.550;2023-05-21T09:30:44;101139.97;;;18.78;72.21
75740;BME280;64357;51.344;6.550;2023-05-21T09:33:10;101136.16;;;19.09;71.09
75740;BME280;64357;51.344;6.550;2023-05-21T09:35:36;101130.50;;;19.40;70.00
75740;BME280;64357;51.344;6.550;2023-05-21T09:38:07;101124.59;;;19.92;68.09
75740;BME280;64357;51.344;6.550;2023-05-21T09:40:33;101124.91;;;20.63;65.43
75740;BME280;64357;51.344;6.550;2023-05-21T09:43:01;101123.16;;;21.18;63.42
75740;BME280;64357;51.344;6.550;2023-05-21T09:45:27;101127.50;;;20.37;65.20
75740;BME280;64357;51.344;6.550;2023-05-21T09:47:55;101127.81;;;20.41;65.72
75740;BME280;64357;51.344;6.550;2023-05-21T09:50:25;101121.03;;;20.98;63.40
75740;BME280;64357;51.344;6.550;2023-05-21T09:52:53;101123.00;;;21.73;61.21
75740;BME280;64357;51.344;6.550;2023-05-21T09:55:24;101109.63;;;21.37;62.31
75740;BME280;64357;51.344;6.550;2023-05-21T09:57:50;101119.38;;;21.13;62.75
75740;BME280;64357;51.344;6.550;2023-05-21T10:00:23;101115.69;;;21.10;62.86
75740;BME280;64357;51.344;6.550;2023-05-21T10:02:53;101120.13;;;21.25;62.68
75740;BME280;64357;51.344;6.550;2023-05-21T10:05:20;101116.44;;;20.66;64.61
75740;BME280;64357;51.344;6.550;2023-05-21T10:07:49;101118.44;;;20.70;63.31
75740;BME280;64357;51.344;6.550;2023-05-21T10:10:19;101108.81;;;20.69;64.16
75740;BME280;64357;51.344;6.550;2023-05-21T10:12:46;101104.78;;;21.15;63.35
75740;BME280;64357;51.344;6.550;2023-05-21T10:15:17;101099.44;;;21.70;61.63
75740;BME280;64357;51.344;6.550;2023-05-21T10:17:45;101101.94;;;21.25;62.31
75740;BME280;64357;51.344;6.550;2023-05-21T10:20:12;101095.00;;;21.39;63.07
75740;BME280;64357;51.344;6.550;2023-05-21T10:22:38;101099.50;;;21.14;63.10
75740;BME280;64357;51.344;6.550;2023-05-21T10:25:06;101091.34;;;21.36;62.27
75740;BME280;64357;51.344;6.550;2023-05-21T10:27:32;101091.22;;;21.34;62.03
75740;BME280;64357;51.344;6.550;2023-05-21T10:30:05;101085.19;;;20.92;63.85
75740;BME280;64357;51.344;6.550;2023-05-21T10:32:31;101084.72;;;21.41;62.31
75740;BME280;64357;51.344;6.550;2023-05-21T10:34:57;101086.41;;;22.76;58.87
75740;BME280;64357;51.344;6.550;2023-05-21T10:37:29;101084.53;;;23.39;56.52
75740;BME280;64357;51.344;6.550;2023-05-21T10:39:55;101098.44;;;22.74;57.51
75740;BME280;64357;51.344;6.550;2023-05-21T11:00:52;101060.03;;;22.08;60.80
75740;BME280;64357;51.344;6.550;2023-05-21T11:03:21;101079.00;;;23.33;57.67
75740;BME280;64357;51.344;6.550;2023-05-21T11:05:55;101072.56;;;23.93;54.98
75740;BME280;64357;51.344;6.550;2023-05-21T11:13:22;101059.03;;;23.66;55.26
75740;BME280;64357;51.344;6.550;2023-05-21T11:26:22;101064.13;;;22.98;57.93
75740;BME280;64357;51.344;6.550;2023-05-21T11:31:32;101052.00;;;22.98;58.13
75740;BME280;64357;51.344;6.550;2023-05-21T11:34:19;101051.94;;;23.13;57.63
75740;BME280;64357;51.344;6.550;2023-05-21T11:39:49;101048.25;;;23.26;57.07
75740;BME280;64357;51.344;6.550;2023-05-21T11:44:47;101050.53;;;23.54;56.66
75740;BME280;64357;51.344;6.550;2023-05-21T11:47:13;101056.28;;;23.81;55.74
75740;BME280;64357;51.344;6.550;2023-05-21T11:49:41;101049.25;;;24.51;53.57
75740;BME280;64357;51.344;6.550;2023-05-21T11:52:13;101044.28;;;25.33;52.01
75740;BME280;64357;51.344;6.550;2023-05-21T11:54:41;101045.44;;;24.82;52.40
75740;BME280;64357;51.344;6.550;2023-05-21T11:57:08;101035.38;;;24.52;53.92
75740;BME280;64357;51.344;6.550;2023-05-21T11:59:35;101044.44;;;24.05;54.87
75740;BME280;64357;51.344;6.550;2023-05-21T12:02:05;101034.44;;;23.10;56.99
75740;BME280;64357;51.344;6.550;2023-05-21T12:04:32;101029.31;;;22.96;58.22
75740;BME280;64357;51.344;6.550;2023-05-21T12:07:07;101034.13;;;23.38;57.06
75740;BME280;64357;51.344;6.550;2023-05-21T12:12:13;101029.78;;;23.39;57.30
75740;BME280;64357;51.344;6.550;2023-05-21T12:14:38;101017.91;;;22.94;58.38
75740;BME280;64357;51.344;6.550;2023-05-21T12:17:06;101017.56;;;23.04;58.46
75740;BME280;64357;51.344;6.550;2023-05-21T12:19:35;101018.41;;;23.37;57.89
75740;BME280;64357;51.344;6.550;2023-05-21T12:22:06;101018.19;;;23.84;56.57
75740;BME280;64357;51.344;6.550;2023-05-21T12:24:33;101019.81;;;24.00;56.12
75740;BME280;64357;51.344;6.550;2023-05-21T12:27:00;101024.59;;;23.91;56.71
75740;BME280;64357;51.344;6.550;2023-05-21T12:29:30;101023.84;;;23.07;57.95
75740;BME280;64357;51.344;6.550;2023-05-21T12:31:59;101018.34;;;23.35;58.24
75740;BME280;64357;51.344;6.550;2023-05-21T12:34:52;101010.53;;;23.87;56.12
75740;BME280;64357;51.344;6.550;2023-05-21T12:39:49;101005.66;;;23.77;57.93
75740;BME280;64357;51.344;6.550;2023-05-21T12:42:16;100995.59;;;23.33;57.95
75740;BME280;64357;51.344;6.550;2023-05-21T12:44:46;101004.63;;;23.39;57.92
75740;BME280;64357;51.344;6.550;2023-05-21T12:47:12;101006.25;;;23.37;58.65
75740;BME280;64357;51.344;6.550;2023-05-21T12:49:44;101007.56;;;23.11;59.16
75740;BME280;64357;51.344;6.550;2023-05-21T12:52:12;101002.56;;;22.83;59.98
75740;BME280;64357;51.344;6.550;2023-05-21T12:54:40;101001.78;;;23.35;59.35
75740;BME280;64357;51.344;6.550;2023-05-21T12:59:57;100993.31;;;23.05;59.97
75740;BME280;64357;51.344;6.550;2023-05-21T13:02:40;100979.66;;;23.45;59.09
75740;BME280;64357;51.344;6.550;2023-05-21T13:05:08;100988.53;;;23.30;58.93
75740;BME280;64357;51.344;6.550;2023-05-21T13:07:35;100996.34;;;23.30;59.24
75740;BME280;64357;51.344;6.550;2023-05-21T13:10:02;100998.38;;;23.70;58.19
75740;BME280;64357;51.344;6.550;2023-05-21T13:12:31;100985.44;;;23.91;58.12
75740;BME280;64357;51.344;6.550;2023-05-21T13:14:58;100995.88;;;23.91;58.14
75740;BME280;64357;51.344;6.550;2023-05-21T13:17:25;100986.22;;;23.71;59.22
75740;BME280;64357;51.344;6.550;2023-05-21T13:20:17;100986.91;;;23.50;58.87
75740;BME280;64357;51.344;6.550;2023-05-21T13:22:50;100982.81;;;23.55;59.40
75740;BME280;64357;51.344;6.550;2023-05-21T13:25:20;100974.06;;;23.71;58.77
75740;BME280;64357;51.344;6.550;2023-05-21T13:27:51;100979.28;;;23.89;58.42
75740;BME280;64357;51.344;6.550;2023-05-21T13:30:17;100979.34;;;23.73;58.16
75740;BME280;64357;51.344;6.550;2023-05-21T13:32:43;100977.19;;;23.64;57.93
75740;BME280;64357;51.344;6.550;2023-05-21T13:35:09;100974.59;;;23.64;57.80
75740;BME280;64357;51.344;6.550;2023-05-21T13:37:37;100973.91;;;23.86;57.28
75740;BME280;64357;51.344;6.550;2023-05-21T13:40:04;100978.44;;;23.90;57.60
75740;BME280;64357;51.344;6.550;2023-05-21T13:42:30;100979.03;;;24.02;56.83
75740;BME280;64357;51.344;6.550;2023-05-21T13:44:55;100977.59;;;24.09;57.33